createdAt,value
2022-11-23T00:01:20.078Z,77.90
2022-11-23T00:04:22.492Z,77.60
2022-11-23T00:07:24.788Z,77.50
2022-11-23T00:10:26.801Z,77.90
2022-11-23T00:13:29.238Z,77.90
2022-11-23T00:16:31.378Z,77.60
2022-11-23T00:19:33.550Z,78.60
2022-11-23T00:22:35.897Z,77.20
2022-11-23T00:25:38.491Z,76.90
2022-11-23T00:28:40.507Z,77.10
2022-11-23T00:31:43.996Z,76.70
2022-11-23T00:34:46.016Z,77.20
2022-11-23T00:37:48.312Z,77.00
2022-11-23T00:40:50.265Z,76.80
2022-11-23T00:43:52.854Z,77.00
2022-11-23T00:46:54.802Z,76.80
2022-11-23T00:49:56.864Z,76.90
2022-11-23T00:52:58.826Z,76.80
2022-11-23T00:56:00.841Z,77.20
2022-11-23T00:59:04.048Z,77.20
2022-11-23T01:02:07.486Z,76.90
2022-11-23T01:05:09.621Z,76.90
2022-11-23T01:08:11.785Z,77.50
2022-11-23T01:11:13.805Z,77.80
2022-11-23T01:14:16.032Z,78.20
2022-11-23T01:17:18.134Z,78.10
2022-11-23T01:20:20.205Z,78.40
2022-11-23T01:23:22.289Z,79.60
2022-11-23T01:26:24.723Z,79.20
2022-11-23T01:29:33.929Z,79.90
2022-11-23T01:32:36.741Z,79.20
2022-11-23T01:35:38.699Z,78.90
2022-11-23T01:38:42.334Z,78.30
2022-11-23T01:41:45.737Z,78.10
2022-11-23T01:44:48.669Z,77.50
2022-11-23T01:47:50.834Z,77.90
2022-11-23T01:50:54.120Z,77.50
2022-11-23T01:54:00.889Z,76.90
2022-11-23T01:57:11.025Z,76.90
2022-11-23T02:00:13.593Z,77.60
2022-11-23T02:03:15.734Z,76.10
2022-11-23T02:06:20.061Z,76.70
2022-11-23T02:09:23.178Z,76.40
2022-11-23T02:12:26.311Z,76.20
2022-11-23T02:15:28.526Z,75.80
2022-11-23T02:18:33.105Z,76.00
2022-11-23T02:21:35.292Z,76.30
2022-11-23T02:24:49.959Z,76.70
2022-11-23T02:27:53.711Z,76.70
2022-11-23T02:30:56.336Z,76.40
2022-11-23T02:33:59.131Z,76.90
2022-11-23T02:37:04.071Z,76.20
2022-11-23T02:40:20.939Z,76.80
2022-11-23T02:43:23.471Z,77.00
2022-11-23T02:46:27.818Z,76.70
2022-11-23T02:49:29.991Z,76.50
2022-11-23T02:52:32.335Z,76.00
2022-11-23T02:55:34.471Z,76.10
2022-11-23T02:58:37.054Z,76.70
2022-11-23T03:01:42.032Z,76.20
2022-11-23T03:04:44.167Z,76.50
2022-11-23T03:07:46.735Z,76.70
2022-11-23T03:10:48.749Z,76.60
2022-11-23T03:13:51.022Z,76.60
2022-11-23T03:16:55.471Z,77.10
2022-11-23T03:19:58.909Z,76.80
2022-11-23T03:23:01.624Z,77.30
2022-11-23T03:26:07.334Z,77.30
2022-11-23T03:29:18.986Z,77.50
2022-11-23T03:32:22.059Z,77.70
2022-11-23T03:35:28.335Z,77.70
2022-11-23T03:38:51.452Z,78.00
2022-11-23T03:42:13.550Z,77.60
2022-11-23T03:45:15.654Z,77.80
2022-11-23T03:48:17.848Z,77.50
2022-11-23T03:51:21.933Z,77.80
2022-11-23T03:54:24.330Z,78.20
2022-11-23T03:57:26.451Z,78.30
2022-11-23T04:00:30.001Z,79.30
2022-11-23T04:03:34.246Z,79.10
2022-11-23T04:06:42.291Z,79.10
2022-11-23T04:09:51.706Z,79.10
2022-11-23T04:13:16.781Z,78.90
2022-11-23T04:16:19.030Z,78.80
2022-11-23T04:19:21.196Z,78.70
2022-11-23T04:22:23.249Z,78.70
2022-11-23T04:25:25.352Z,78.60
2022-11-23T04:28:27.630Z,78.60
2022-11-23T04:31:29.775Z,78.60
2022-11-23T04:34:45.218Z,79.30
2022-11-23T04:37:48.919Z,79.00
2022-11-23T04:44:18.855Z,79.40
2022-11-23T04:47:21.475Z,80.10
2022-11-23T04:50:24.813Z,80.20
2022-11-23T04:53:31.707Z,81.10
2022-11-23T04:56:35.154Z,81.40
2022-11-23T04:59:37.192Z,81.60
2022-11-23T05:02:40.791Z,81.90
2022-11-23T05:05:54.288Z,81.90
2022-11-23T05:08:56.634Z,82.00
2022-11-23T05:12:18.540Z,82.80
2022-11-23T05:15:22.280Z,83.10
2022-11-23T05:18:24.577Z,82.80
2022-11-23T05:21:26.874Z,83.00
2022-11-23T05:24:30.521Z,83.10
2022-11-23T05:27:42.014Z,83.30
2022-11-23T05:30:44.923Z,83.70
2022-11-23T05:33:47.434Z,84.00
2022-11-23T05:36:53.519Z,83.90
2022-11-23T05:39:55.525Z,83.60
2022-11-23T05:43:00.010Z,83.40
2022-11-23T05:46:02.821Z,83.30
2022-11-23T05:49:10.387Z,83.20
2022-11-23T05:52:14.281Z,83.10
2022-11-23T05:55:16.433Z,83.80
2022-11-23T05:58:19.155Z,84.70
2022-11-23T06:01:22.270Z,84.10
2022-11-23T06:04:25.706Z,83.60
2022-11-23T06:07:28.145Z,83.60
2022-11-23T06:10:48.932Z,83.70
2022-11-23T06:13:51.176Z,83.50
2022-11-23T06:16:53.473Z,83.70
2022-11-23T06:20:08.854Z,83.60
2022-11-23T06:23:15.722Z,83.50
2022-11-23T06:26:20.371Z,83.20
2022-11-23T06:29:23.754Z,83.90
2022-11-23T06:32:28.030Z,85.00
2022-11-23T06:35:32.189Z,85.50
2022-11-23T06:38:35.376Z,84.60
2022-11-23T06:41:42.763Z,83.80
2022-11-23T06:44:47.332Z,83.70
2022-11-23T06:47:50.223Z,83.70
2022-11-23T06:50:52.997Z,83.50
2022-11-23T06:53:57.324Z,83.00
2022-11-23T06:57:00.644Z,84.00
2022-11-23T07:00:03.420Z,83.60
2022-11-23T07:03:20.353Z,84.10
2022-11-23T07:06:24.850Z,84.60
2022-11-23T07:09:30.119Z,84.60
2022-11-23T07:12:53.910Z,84.30
2022-11-23T07:15:58.642Z,83.80
2022-11-23T07:19:02.184Z,83.90
2022-11-23T07:22:04.351Z,84.20
2022-11-23T07:25:07.096Z,84.20
2022-11-23T07:28:11.838Z,83.50
2022-11-23T07:31:13.864Z,83.40
2022-11-23T07:34:15.732Z,83.50
2022-11-23T07:37:18.770Z,83.60
2022-11-23T07:40:20.781Z,82.90
2022-11-23T07:43:22.710Z,82.70
2022-11-23T07:46:25.336Z,82.80
2022-11-23T07:49:27.229Z,82.70
2022-11-23T07:52:29.217Z,82.70
2022-11-23T07:55:31.575Z,82.00
2022-11-23T07:58:33.533Z,82.00
2022-11-23T08:01:35.459Z,81.90
2022-11-23T08:04:37.305Z,81.70
2022-11-23T08:07:39.423Z,81.60
2022-11-23T08:10:46.105Z,81.40
2022-11-23T08:13:50.458Z,81.10
2022-11-23T08:16:52.565Z,81.20
2022-11-23T08:19:57.555Z,80.60
2022-11-23T08:22:59.615Z,80.00
2022-11-23T08:26:06.697Z,79.70
2022-11-23T08:29:12.327Z,80.90
2022-11-23T08:32:14.366Z,81.00
2022-11-23T08:35:16.373Z,80.00
2022-11-23T08:38:18.411Z,80.30
2022-11-23T08:41:20.988Z,79.90
2022-11-23T08:44:22.929Z,79.50
2022-11-23T08:47:24.796Z,76.20
2022-11-23T08:50:26.946Z,75.70
2022-11-23T08:53:28.811Z,76.50
2022-11-23T08:56:30.702Z,74.70
2022-11-23T08:59:32.590Z,74.10
2022-11-23T09:02:34.609Z,71.20
2022-11-23T09:05:39.740Z,69.70
2022-11-23T09:08:41.666Z,68.40
2022-11-23T09:11:43.508Z,67.00
2022-11-23T09:14:48.034Z,65.00
2022-11-23T09:17:49.956Z,65.50
2022-11-23T09:20:52.027Z,59.80
2022-11-23T09:23:53.927Z,57.70
2022-11-23T09:26:56.643Z,55.30
2022-11-23T09:29:58.757Z,52.90
2022-11-23T09:33:00.703Z,53.20
2022-11-23T09:36:04.289Z,53.50
2022-11-23T09:39:06.178Z,52.70
2022-11-23T09:42:24.573Z,52.70
2022-11-23T09:45:49.541Z,53.50
2022-11-23T09:48:57.547Z,54.50
2022-11-23T09:51:59.600Z,55.50
2022-11-23T09:55:07.307Z,54.70
2022-11-23T09:58:15.245Z,51.60
2022-11-23T10:01:17.337Z,50.50
2022-11-23T10:04:20.635Z,48.20
2022-11-23T10:07:22.715Z,46.80
2022-11-23T10:10:44.577Z,48.20
2022-11-23T10:14:01.837Z,47.90
2022-11-23T10:17:12.046Z,46.40
2022-11-23T10:20:19.974Z,45.10
2022-11-23T10:23:44.556Z,44.40
2022-11-23T10:26:49.582Z,44.60
2022-11-23T10:29:51.805Z,44.20
2022-11-23T10:33:09.379Z,43.80
2022-11-23T10:36:11.783Z,44.80
2022-11-23T10:39:22.475Z,43.80
2022-11-23T10:42:47.246Z,42.90
2022-11-23T10:45:49.239Z,43.30
2022-11-23T10:48:54.248Z,43.70
2022-11-23T10:52:05.333Z,43.90
2022-11-23T10:55:07.397Z,43.70
2022-11-23T10:58:26.728Z,43.50
2022-11-23T11:01:29.239Z,43.00
2022-11-23T11:04:31.639Z,43.10
2022-11-23T11:07:37.146Z,43.20
2022-11-23T11:10:44.262Z,44.40
2022-11-23T11:13:47.789Z,45.60
2022-11-23T11:16:58.486Z,45.20
2022-11-23T11:20:32.881Z,46.30
2022-11-23T11:23:38.696Z,46.40
2022-11-23T11:26:49.866Z,47.40
2022-11-23T11:29:54.576Z,47.00
2022-11-23T11:33:19.992Z,47.30
2022-11-23T11:36:24.155Z,48.20
2022-11-23T11:39:35.785Z,50.00
2022-11-23T11:42:44.012Z,47.90
2022-11-23T11:46:21.264Z,47.30
2022-11-23T11:49:35.269Z,47.80
2022-11-23T12:03:47.899Z,48.40
2022-11-23T12:07:14.393Z,49.10
2022-11-23T12:10:23.670Z,50.20
2022-11-23T12:13:34.748Z,51.90
2022-11-23T12:17:17.378Z,51.20
2022-11-23T12:20:30.992Z,51.40
2022-11-23T12:24:06.976Z,51.20
2022-11-23T12:27:42.116Z,50.90
2022-11-23T12:31:25.166Z,52.40
2022-11-23T12:34:42.056Z,52.50
2022-11-23T12:38:02.604Z,51.40
2022-11-23T12:41:10.269Z,52.00
2022-11-23T12:44:34.200Z,52.40
2022-11-23T12:48:16.862Z,53.30
2022-11-23T12:51:23.951Z,54.00
2022-11-23T12:54:56.189Z,51.30
2022-11-23T12:58:17.195Z,53.70
2022-11-23T13:01:31.105Z,53.20
2022-11-23T13:04:54.668Z,52.10
2022-11-23T13:08:21.974Z,54.00
2022-11-23T13:11:35.863Z,53.00
2022-11-23T13:14:48.699Z,50.90
2022-11-23T13:18:12.010Z,51.50
2022-11-23T13:21:23.420Z,54.40
2022-11-23T13:24:34.232Z,54.00
2022-11-23T13:28:16.610Z,51.20
2022-11-23T13:31:21.786Z,51.50
2022-11-23T13:34:43.690Z,52.80
2022-11-23T13:37:57.479Z,51.40
2022-11-23T13:41:00.308Z,52.40
2022-11-23T13:44:17.365Z,52.90
2022-11-23T13:47:20.541Z,54.90
2022-11-23T13:50:26.447Z,52.60
2022-11-23T13:53:35.707Z,51.10
2022-11-23T13:56:41.213Z,50.10
2022-11-23T13:59:43.160Z,50.90
2022-11-23T14:02:45.127Z,51.00
2022-11-23T14:05:50.082Z,50.70
2022-11-23T14:09:14.590Z,51.40
2022-11-23T14:12:19.487Z,52.40
2022-11-23T14:15:30.956Z,52.10
2022-11-23T14:18:38.788Z,52.80
2022-11-23T14:22:12.731Z,52.50
2022-11-23T14:25:45.330Z,53.50
2022-11-23T14:28:59.373Z,54.20
2022-11-23T14:32:34.944Z,55.00
2022-11-23T14:35:52.280Z,55.20
2022-11-23T14:39:34.590Z,55.80
2022-11-23T14:42:43.833Z,56.30
2022-11-23T14:45:47.560Z,57.20
2022-11-23T14:48:49.988Z,56.90
2022-11-23T14:51:52.159Z,57.20
2022-11-23T14:54:56.457Z,57.80
2022-11-23T14:58:02.663Z,58.10
2022-11-23T15:01:19.457Z,58.50
2022-11-23T15:04:33.494Z,58.60
2022-11-23T15:07:47.115Z,58.80
2022-11-23T15:11:03.371Z,59.20
2022-11-23T15:14:18.848Z,59.10
2022-11-23T15:17:22.175Z,59.60
2022-11-23T15:20:29.609Z,59.50
2022-11-23T15:23:38.493Z,59.80
2022-11-23T15:26:48.670Z,59.90
2022-11-23T15:29:59.624Z,60.60
2022-11-23T15:33:03.435Z,60.70
2022-11-23T15:36:07.785Z,60.10
2022-11-23T15:39:21.345Z,60.30
2022-11-23T15:42:25.803Z,61.00
2022-11-23T15:45:46.056Z,61.10
2022-11-23T15:48:49.755Z,61.30
2022-11-23T15:51:52.241Z,61.30
2022-11-23T15:54:56.354Z,61.80
2022-11-23T15:57:59.814Z,62.00
2022-11-23T16:01:27.828Z,61.40
2022-11-23T16:04:36.401Z,62.00
2022-11-23T16:08:01.130Z,61.50
2022-11-23T16:11:03.532Z,61.80
2022-11-23T16:14:16.312Z,61.50
2022-11-23T16:17:21.890Z,61.80
2022-11-23T16:20:25.609Z,62.30
2022-11-23T16:23:56.041Z,63.40
2022-11-23T16:26:58.052Z,64.40
2022-11-23T16:30:03.365Z,67.60
2022-11-23T16:33:06.440Z,71.00
2022-11-23T16:36:08.551Z,71.80
2022-11-23T16:39:10.517Z,71.30
2022-11-23T16:42:16.833Z,71.60
2022-11-23T16:45:18.804Z,71.00
2022-11-23T16:48:26.504Z,71.60
2022-11-23T16:51:28.493Z,73.30
2022-11-23T16:54:30.400Z,74.10
2022-11-23T16:57:35.250Z,74.90
2022-11-23T17:00:37.241Z,75.00
2022-11-23T17:03:39.292Z,78.00
2022-11-23T17:06:41.169Z,75.80
2022-11-23T17:09:43.126Z,77.10
2022-11-23T17:12:54.012Z,75.90
2022-11-23T17:15:56.280Z,76.50
2022-11-23T17:18:58.111Z,77.30
2022-11-23T17:22:00.081Z,78.00
2022-11-23T17:25:02.041Z,78.80
2022-11-23T17:28:06.135Z,77.80
2022-11-23T17:31:10.326Z,78.40
2022-11-23T17:34:13.319Z,79.80
2022-11-23T17:37:18.754Z,80.00
2022-11-23T17:40:22.251Z,78.50
2022-11-23T17:43:24.099Z,80.90
2022-11-23T17:46:27.973Z,80.10
2022-11-23T17:49:30.452Z,80.50
2022-11-23T17:52:33.166Z,80.60
2022-11-23T17:55:35.261Z,80.70
2022-11-23T17:58:39.662Z,80.20
2022-11-23T18:01:41.613Z,80.40
2022-11-23T18:04:43.577Z,81.00
2022-11-23T18:07:45.529Z,81.60
2022-11-23T18:10:47.486Z,81.80
2022-11-23T18:13:50.039Z,81.80
2022-11-23T18:16:51.911Z,81.10
2022-11-23T18:19:53.925Z,81.90
2022-11-23T18:22:55.857Z,82.10
2022-11-23T18:26:05.200Z,82.70
2022-11-23T18:29:07.449Z,82.80
2022-11-23T18:32:09.393Z,83.00
2022-11-23T18:35:11.349Z,83.10
2022-11-23T18:38:13.865Z,83.40
2022-11-23T18:41:18.364Z,83.90
2022-11-23T18:44:20.437Z,83.10
2022-11-23T18:47:22.332Z,83.40
2022-11-23T18:50:24.257Z,83.50
2022-11-23T18:53:26.133Z,83.80
2022-11-23T18:56:28.024Z,84.10
2022-11-23T18:59:58.642Z,84.30
2022-11-23T19:02:53.728Z,84.70
2022-11-23T19:06:01.670Z,84.30
2022-11-23T19:09:03.620Z,84.50
2022-11-23T19:12:07.908Z,84.30
2022-11-23T19:15:11.223Z,84.40
2022-11-23T19:18:13.203Z,84.30
2022-11-23T19:21:17.571Z,84.60
2022-11-23T19:24:19.560Z,84.30
2022-11-23T19:27:21.474Z,84.40
2022-11-23T19:30:23.464Z,84.60
2022-11-23T19:33:25.339Z,84.30
2022-11-23T19:36:29.243Z,84.40
2022-11-23T19:39:31.233Z,84.20
2022-11-23T19:42:35.255Z,84.70
2022-11-23T19:45:37.114Z,84.40
2022-11-23T19:48:39.491Z,84.50
2022-11-23T19:51:41.403Z,84.60
2022-11-23T19:54:43.329Z,84.40
2022-11-23T19:57:45.243Z,84.10
2022-11-23T20:00:47.200Z,84.10
2022-11-23T20:03:51.733Z,84.00
2022-11-23T20:06:53.627Z,84.10
2022-11-23T20:09:55.550Z,83.90
2022-11-23T20:12:57.455Z,83.30
2022-11-23T20:16:20.036Z,83.40
2022-11-23T20:19:22.113Z,83.10
2022-11-23T20:22:24.032Z,83.30
2022-11-23T20:25:28.189Z,83.20
2022-11-23T20:28:30.144Z,83.00
2022-11-23T20:31:33.025Z,83.30
2022-11-23T20:34:35.123Z,82.90
2022-11-23T20:37:37.246Z,83.30
2022-11-23T20:40:39.416Z,83.00
2022-11-23T20:43:41.726Z,83.70
2022-11-23T20:50:06.843Z,83.30
2022-11-23T20:53:08.715Z,83.60
2022-11-23T20:56:12.469Z,83.10
2022-11-23T20:59:14.625Z,83.10
2022-11-23T21:02:16.832Z,83.10
2022-11-23T21:05:19.781Z,83.70
2022-11-23T21:08:27.886Z,83.60
2022-11-23T21:11:32.223Z,83.30
2022-11-23T21:14:34.529Z,83.80
2022-11-23T21:17:36.518Z,83.80
2022-11-23T21:20:38.440Z,83.20
2022-11-23T21:23:40.368Z,83.70
2022-11-23T21:26:42.463Z,83.90
2022-11-23T21:29:44.390Z,84.00
2022-11-23T21:32:50.032Z,84.20
2022-11-23T21:35:51.999Z,84.50
2022-11-23T21:38:53.822Z,84.50
2022-11-23T21:41:55.802Z,84.50
2022-11-23T21:44:57.757Z,84.30
2022-11-23T21:48:01.936Z,84.20
2022-11-23T21:51:07.006Z,84.00
2022-11-23T21:54:09.435Z,84.10
2022-11-23T21:57:11.337Z,84.10
2022-11-23T22:00:13.527Z,83.80
2022-11-23T22:03:15.418Z,83.70
2022-11-23T22:06:20.702Z,83.60
2022-11-23T22:09:22.813Z,83.50
2022-11-23T22:12:24.778Z,83.60
2022-11-23T22:15:26.953Z,83.50
2022-11-23T22:18:29.951Z,83.30
2022-11-23T22:21:37.017Z,83.40
2022-11-23T22:24:38.945Z,83.40
2022-11-23T22:27:40.852Z,83.40
2022-11-23T22:30:42.737Z,83.40
2022-11-23T22:33:44.897Z,83.50
2022-11-23T22:36:49.567Z,83.70
2022-11-23T22:39:51.424Z,83.60
2022-11-23T22:42:53.296Z,83.00
2022-11-23T22:45:55.317Z,82.90
2022-11-23T22:48:57.367Z,82.90
2022-11-23T22:51:59.349Z,83.10
2022-11-23T22:55:01.361Z,83.30
2022-11-23T22:58:03.208Z,83.30
2022-11-23T23:01:07.901Z,83.10
2022-11-23T23:04:09.838Z,83.10
2022-11-23T23:07:11.691Z,83.00
2022-11-23T23:10:16.941Z,83.30
2022-11-23T23:13:20.210Z,83.30
2022-11-23T23:16:22.693Z,83.00
2022-11-23T23:19:24.756Z,83.00
2022-11-23T23:22:26.726Z,83.00
2022-11-23T23:25:28.603Z,82.90
2022-11-23T23:28:30.477Z,82.70
2022-11-23T23:31:32.389Z,82.70
2022-11-23T23:34:34.611Z,82.50
2022-11-23T23:37:37.084Z,82.60
2022-11-23T23:40:38.964Z,82.20
2022-11-23T23:43:41.505Z,82.60
2022-11-23T23:46:43.399Z,82.20
2022-11-23T23:49:45.298Z,82.40
2022-11-23T23:52:47.161Z,82.40
2022-11-23T23:55:59.693Z,82.80
2022-11-23T23:59:01.594Z,82.20
